createdAt,value
2018-05-02T00:00:26.351Z,13.44
2018-05-02T00:02:57.914Z,13.39
2018-05-02T00:05:25.615Z,13.39
2018-05-02T00:07:53.181Z,13.40
2018-05-02T00:10:20.760Z,13.42
2018-05-02T00:12:48.342Z,13.43
2018-05-02T00:15:16.236Z,13.38
2018-05-02T00:17:43.817Z,13.28
2018-05-02T00:20:11.344Z,13.28
2018-05-02T00:22:38.855Z,13.26
2018-05-02T00:25:06.584Z,13.28
2018-05-02T00:27:34.137Z,13.29
2018-05-02T00:30:01.728Z,13.26
2018-05-02T00:35:03.141Z,13.26
2018-05-02T00:37:30.682Z,13.28
2018-05-02T00:39:58.261Z,13.27
2018-05-02T00:42:25.804Z,13.27
2018-05-02T00:44:53.358Z,13.28
2018-05-02T00:47:20.932Z,13.23
2018-05-02T00:49:48.462Z,13.22
2018-05-02T00:52:16.054Z,13.26
2018-05-02T00:54:43.607Z,13.21
2018-05-02T00:57:11.182Z,13.19
2018-05-02T00:59:38.750Z,13.23
2018-05-02T01:02:06.400Z,13.26
2018-05-02T01:04:33.942Z,13.25
2018-05-02T01:07:01.516Z,13.26
2018-05-02T01:09:29.080Z,13.25
2018-05-02T01:14:46.875Z,13.14
2018-05-02T01:17:14.458Z,13.12
2018-05-02T01:19:41.984Z,13.10
2018-05-02T01:22:09.556Z,13.07
2018-05-02T01:24:37.069Z,13.08
2018-05-02T01:27:04.683Z,13.04
2018-05-02T01:29:32.440Z,13.08
2018-05-02T01:31:59.996Z,13.08
2018-05-02T01:34:27.551Z,13.03
2018-05-02T01:36:55.932Z,13.04
2018-05-02T01:39:23.684Z,12.99
2018-05-02T01:41:51.306Z,13.03
2018-05-02T01:44:18.898Z,13.05
2018-05-02T01:46:46.493Z,13.04
2018-05-02T01:49:23.800Z,13.03
2018-05-02T01:51:51.330Z,13.03
2018-05-02T01:54:18.889Z,13.01
2018-05-02T01:56:46.429Z,12.98
2018-05-02T01:59:13.965Z,12.96
2018-05-02T02:01:41.480Z,12.89
2018-05-02T02:04:09.016Z,12.88
2018-05-02T02:06:36.548Z,12.88
2018-05-02T02:09:04.080Z,12.86
2018-05-02T02:11:31.921Z,12.81
2018-05-02T02:13:59.512Z,12.79
2018-05-02T02:16:27.031Z,12.74
2018-05-02T02:18:54.576Z,12.71
2018-05-02T02:21:22.238Z,12.72
2018-05-02T02:23:49.874Z,12.70
2018-05-02T02:26:17.431Z,12.68
2018-05-02T02:28:44.970Z,12.69
2018-05-02T02:31:12.609Z,12.65
2018-05-02T02:33:40.298Z,12.61
2018-05-02T02:36:07.788Z,12.59
2018-05-02T02:38:35.309Z,12.59
2018-05-02T02:41:02.792Z,12.61
2018-05-02T02:43:30.744Z,12.59
2018-05-02T02:45:58.257Z,12.53
2018-05-02T02:48:26.149Z,12.46
2018-05-02T02:50:54.045Z,12.40
2018-05-02T02:53:21.936Z,12.40
2018-05-02T02:55:49.470Z,12.40
2018-05-02T02:58:16.961Z,12.39
2018-05-02T03:00:44.471Z,12.36
2018-05-02T03:03:12.266Z,12.30
2018-05-02T03:05:39.797Z,12.28
2018-05-02T03:08:07.360Z,12.29
2018-05-02T03:10:34.864Z,12.25
2018-05-02T03:13:02.377Z,12.15
2018-05-02T03:15:30.205Z,12.15
2018-05-02T03:17:57.688Z,12.16
2018-05-02T03:20:25.211Z,12.17
2018-05-02T03:22:52.752Z,12.16
2018-05-02T03:25:20.288Z,12.14
2018-05-02T03:27:47.830Z,12.12
2018-05-02T03:30:15.392Z,12.10
2018-05-02T03:32:42.929Z,12.09
2018-05-02T03:35:10.673Z,12.04
2018-05-02T03:37:38.229Z,12.02
2018-05-02T03:40:05.745Z,12.00
2018-05-02T03:42:33.323Z,11.98
2018-05-02T03:45:01.673Z,11.98
2018-05-02T03:47:29.180Z,11.97
2018-05-02T03:49:56.740Z,11.91
2018-05-02T03:52:24.249Z,11.91
2018-05-02T03:54:51.806Z,11.97
2018-05-02T03:57:26.746Z,11.98
2018-05-02T04:00:05.840Z,11.87
2018-05-02T04:02:45.794Z,11.77
2018-05-02T04:05:29.013Z,11.83
2018-05-02T04:08:05.132Z,11.87
2018-05-02T04:10:38.145Z,11.83
2018-05-02T04:13:05.775Z,11.82
2018-05-02T04:15:33.323Z,11.83
2018-05-02T04:18:00.888Z,11.86
2018-05-02T04:20:28.435Z,11.88
2018-05-02T04:23:02.983Z,11.96
2018-05-02T04:25:38.946Z,11.99
2018-05-02T04:28:12.878Z,11.98
2018-05-02T04:30:47.032Z,12.02
2018-05-02T04:33:20.339Z,12.09
2018-05-02T04:35:53.192Z,12.22
2018-05-02T04:38:24.697Z,12.30
2018-05-02T04:40:57.335Z,12.37
2018-05-02T04:43:31.204Z,12.43
2018-05-02T04:46:03.922Z,12.47
2018-05-02T04:48:37.207Z,12.51
2018-05-02T04:51:10.337Z,12.54
2018-05-02T04:53:44.246Z,12.55
2018-05-02T04:56:17.307Z,12.65
2018-05-02T04:58:50.599Z,12.70
2018-05-02T05:01:23.434Z,12.74
2018-05-02T05:03:56.130Z,12.83
2018-05-02T05:06:28.852Z,12.89
2018-05-02T05:09:04.317Z,12.88
2018-05-02T05:11:43.314Z,12.93
2018-05-02T05:14:16.796Z,12.99
2018-05-02T05:16:49.852Z,13.08
2018-05-02T05:19:23.533Z,13.21
2018-05-02T05:21:56.112Z,13.31
2018-05-02T05:24:31.431Z,13.44
2018-05-02T05:27:04.272Z,13.58
2018-05-02T05:29:37.262Z,13.71
2018-05-02T05:32:11.255Z,13.84
2018-05-02T05:34:46.409Z,13.97
2018-05-02T05:37:18.835Z,14.10
2018-05-02T05:39:53.654Z,14.22
2018-05-02T05:42:25.885Z,14.32
2018-05-02T05:44:59.437Z,14.45
2018-05-02T05:47:27.104Z,14.56
2018-05-02T05:49:54.658Z,14.65
2018-05-02T05:52:22.192Z,14.71
2018-05-02T05:54:49.733Z,14.75
2018-05-02T05:57:17.300Z,14.84
2018-05-02T05:59:44.827Z,14.94
2018-05-02T06:02:12.580Z,14.97
2018-05-02T06:04:40.116Z,14.98
2018-05-02T06:07:07.651Z,15.06
2018-05-02T06:09:35.221Z,15.16
2018-05-02T06:12:02.760Z,15.23
2018-05-02T06:14:30.297Z,15.29
2018-05-02T06:16:57.822Z,15.33
2018-05-02T06:19:25.525Z,15.37
2018-05-02T06:21:53.070Z,15.43
2018-05-02T06:24:20.791Z,15.49
2018-05-02T06:26:48.295Z,15.57
2018-05-02T06:29:15.804Z,15.55
2018-05-02T06:31:43.351Z,15.59
2018-05-02T06:34:10.902Z,15.66
2018-05-02T06:36:38.405Z,15.75
2018-05-02T06:39:05.945Z,15.86
2018-05-02T06:41:33.988Z,15.96
2018-05-02T06:44:01.536Z,16.10
2018-05-02T06:46:29.096Z,16.19
2018-05-02T06:48:56.628Z,16.28
2018-05-02T06:51:24.183Z,16.34
2018-05-02T06:53:51.746Z,16.45
2018-05-02T06:56:19.286Z,16.58
2018-05-02T06:58:46.785Z,16.71
2018-05-02T07:01:14.269Z,16.84
2018-05-02T07:03:41.743Z,16.95
2018-05-02T07:06:09.285Z,17.03
2018-05-02T07:08:36.821Z,17.11
2018-05-02T07:11:04.351Z,17.17
2018-05-02T07:13:31.916Z,17.20
2018-05-02T07:15:59.469Z,17.24
2018-05-02T07:18:27.060Z,17.20
2018-05-02T07:20:54.687Z,17.33
2018-05-02T07:23:22.530Z,17.37
2018-05-02T07:25:50.111Z,17.41
2018-05-02T07:28:17.655Z,17.45
2018-05-02T07:30:45.229Z,17.49
2018-05-02T07:33:13.282Z,17.53
2018-05-02T07:35:41.238Z,17.58
2018-05-02T07:38:08.811Z,17.66
2018-05-02T07:40:36.435Z,17.64
2018-05-02T07:43:04.015Z,17.71
2018-05-02T07:45:31.595Z,17.81
2018-05-02T07:47:59.148Z,17.93
2018-05-02T07:50:26.762Z,18.01
2018-05-02T07:52:54.328Z,18.09
2018-05-02T07:55:21.911Z,18.21
2018-05-02T07:57:49.551Z,18.34
2018-05-02T08:00:17.104Z,18.48
2018-05-02T08:02:44.700Z,18.61
2018-05-02T08:05:12.466Z,18.72
2018-05-02T08:07:40.105Z,18.80
2018-05-02T08:10:07.689Z,18.91
2018-05-02T08:12:35.256Z,19.04
2018-05-02T08:15:02.814Z,19.13
2018-05-02T08:17:30.876Z,19.28
2018-05-02T08:19:58.511Z,19.46
2018-05-02T08:22:26.097Z,19.65
2018-05-02T08:24:53.733Z,19.90
2018-05-02T08:27:21.703Z,20.07
2018-05-02T08:29:49.292Z,20.18
2018-05-02T08:32:16.875Z,20.27
2018-05-02T08:34:44.456Z,20.44
2018-05-02T08:37:12.620Z,20.67
2018-05-02T08:39:40.208Z,20.91
2018-05-02T08:42:07.824Z,21.08
2018-05-02T08:44:35.470Z,21.29
2018-05-02T08:47:03.111Z,21.49
2018-05-02T08:49:30.753Z,21.41
2018-05-02T08:51:58.301Z,21.38
2018-05-02T08:54:26.166Z,21.55
2018-05-02T08:56:53.780Z,21.73
2018-05-02T08:59:21.345Z,21.94
2018-05-02T09:01:48.985Z,22.14
2018-05-02T09:04:16.557Z,22.33
2018-05-02T09:06:44.105Z,22.48
2018-05-02T09:09:12.202Z,22.63
2018-05-02T09:11:39.788Z,22.76
2018-05-02T09:14:07.382Z,22.87
2018-05-02T09:16:35.014Z,22.84
2018-05-02T09:19:02.672Z,22.72
2018-05-02T09:21:30.268Z,22.75
2018-05-02T09:26:31.632Z,22.78
2018-05-02T09:28:59.591Z,22.82
2018-05-02T09:31:27.204Z,22.88
2018-05-02T09:33:54.840Z,23.07
2018-05-02T09:36:22.419Z,23.20
2018-05-02T09:38:50.014Z,23.35
2018-05-02T09:41:17.626Z,23.36
2018-05-02T09:43:45.226Z,23.48
2018-05-02T09:46:12.900Z,23.32
2018-05-02T09:48:40.497Z,23.31
2018-05-02T09:51:08.448Z,23.47
2018-05-02T09:53:36.072Z,23.70
2018-05-02T09:56:03.725Z,23.86
2018-05-02T09:58:31.317Z,24.00
2018-05-02T10:00:59.127Z,24.19
2018-05-02T10:03:26.942Z,24.32
2018-05-02T10:06:05.339Z,24.43
2018-05-02T10:08:33.090Z,24.46
2018-05-02T10:11:00.749Z,24.39
2018-05-02T10:13:28.396Z,24.40
2018-05-02T10:15:55.963Z,24.47
2018-05-02T10:18:23.587Z,24.43
2018-05-02T10:20:51.326Z,24.40
2018-05-02T10:23:18.920Z,24.32
2018-05-02T10:25:46.649Z,24.29
2018-05-02T10:28:14.286Z,24.08
2018-05-02T10:30:42.301Z,23.93
2018-05-02T10:33:10.320Z,23.94
2018-05-02T10:35:38.303Z,24.04
2018-05-02T10:38:05.891Z,24.10
2018-05-02T10:40:33.785Z,24.19
2018-05-02T10:43:01.449Z,24.31
2018-05-02T10:45:29.077Z,24.37
2018-05-02T10:47:56.766Z,24.50
2018-05-02T10:50:24.368Z,24.61
2018-05-02T10:52:51.950Z,24.83
2018-05-02T10:55:19.523Z,24.93
2018-05-02T10:57:47.104Z,25.17
2018-05-02T11:00:14.685Z,25.28
2018-05-02T11:02:42.270Z,25.39
2018-05-02T11:05:10.061Z,25.50
2018-05-02T11:07:37.647Z,25.64
2018-05-02T11:10:05.227Z,25.70
2018-05-02T11:12:32.869Z,25.73
2018-05-02T11:15:00.446Z,25.78
2018-05-02T11:17:28.055Z,25.78
2018-05-02T11:19:55.622Z,25.83
2018-05-02T11:22:23.198Z,25.82
2018-05-02T11:24:50.777Z,25.79
2018-05-02T11:27:18.460Z,25.69
2018-05-02T11:29:46.104Z,25.55
2018-05-02T11:32:13.669Z,25.54
2018-05-02T11:34:41.327Z,25.60
2018-05-02T11:37:09.089Z,25.57
2018-05-02T11:42:10.501Z,25.66
2018-05-02T11:44:38.060Z,25.67
2018-05-02T11:47:05.740Z,25.60
2018-05-02T11:49:33.321Z,25.44
2018-05-02T11:52:00.961Z,25.43
2018-05-02T11:54:28.650Z,25.40
2018-05-02T11:56:56.217Z,25.39
2018-05-02T11:59:23.792Z,25.39
2018-05-02T12:01:51.304Z,25.43
2018-05-02T12:04:18.865Z,25.00
2018-05-02T12:06:46.432Z,25.06
2018-05-02T12:09:14.071Z,25.01
2018-05-02T12:11:41.609Z,25.04
2018-05-02T12:14:09.178Z,25.05
2018-05-02T12:16:36.745Z,25.05
2018-05-02T12:19:04.342Z,25.03
2018-05-02T12:21:31.899Z,24.89
2018-05-02T12:23:59.582Z,24.85
2018-05-02T12:26:27.317Z,24.84
2018-05-02T12:28:54.950Z,24.85
2018-05-02T12:31:22.544Z,24.85
2018-05-02T12:33:50.117Z,24.87
2018-05-02T12:36:17.729Z,24.91
2018-05-02T12:38:45.280Z,24.92
2018-05-02T12:41:13.336Z,24.91
2018-05-02T12:43:40.957Z,24.93
2018-05-02T12:46:08.480Z,25.02
2018-05-02T12:48:35.996Z,25.18
2018-05-02T12:51:03.493Z,25.39
2018-05-02T12:53:31.271Z,25.50
2018-05-02T12:55:58.938Z,25.74
2018-05-02T12:58:26.518Z,26.03
2018-05-02T13:00:54.097Z,26.28
2018-05-02T13:03:21.737Z,26.42
2018-05-02T13:05:49.229Z,26.56
2018-05-02T13:08:16.809Z,26.69
2018-05-02T13:10:44.616Z,26.77
2018-05-02T13:13:12.580Z,26.78
2018-05-02T13:15:40.170Z,26.71
2018-05-02T13:18:07.802Z,26.71
2018-05-02T13:20:35.445Z,26.63
2018-05-02T13:23:03.006Z,26.55
2018-05-02T13:25:30.609Z,26.56
2018-05-02T13:27:58.232Z,26.60
2018-05-02T13:30:25.801Z,26.58
2018-05-02T13:32:53.377Z,26.64
2018-05-02T13:35:20.966Z,26.68
2018-05-02T13:37:48.588Z,26.57
2018-05-02T13:40:16.107Z,26.63
2018-05-02T13:42:43.728Z,26.73
2018-05-02T13:45:11.796Z,26.85
2018-05-02T13:47:39.485Z,26.84
2018-05-02T13:50:07.121Z,26.70
2018-05-02T13:52:35.255Z,26.68
2018-05-02T13:55:02.861Z,26.54
2018-05-02T13:57:30.645Z,26.53
2018-05-02T14:00:00.553Z,26.62
2018-05-02T14:02:28.421Z,26.61
2018-05-02T14:04:56.033Z,26.59
2018-05-02T14:07:29.955Z,26.54
2018-05-02T14:09:59.575Z,26.65
2018-05-02T14:12:32.295Z,26.67
2018-05-02T14:15:02.366Z,26.73
2018-05-02T14:17:31.280Z,26.77
2018-05-02T14:19:58.860Z,26.85
2018-05-02T14:22:26.524Z,26.89
2018-05-02T14:24:54.099Z,26.93
2018-05-02T14:27:22.123Z,26.99
2018-05-02T14:29:50.611Z,27.09
2018-05-02T14:32:18.418Z,27.13
2018-05-02T14:34:46.026Z,27.13
2018-05-02T14:37:13.608Z,27.18
2018-05-02T14:39:41.316Z,27.27
2018-05-02T14:42:08.863Z,27.35
2018-05-02T14:44:36.616Z,27.39
2018-05-02T14:47:04.126Z,27.33
2018-05-02T14:49:31.901Z,27.08
2018-05-02T14:51:59.512Z,26.89
2018-05-02T14:54:27.142Z,26.80
2018-05-02T14:56:54.735Z,26.72
2018-05-02T14:59:22.375Z,26.51
2018-05-02T15:01:49.919Z,26.49
2018-05-02T15:04:17.485Z,26.45
2018-05-02T15:06:45.088Z,26.43
2018-05-02T15:09:12.689Z,26.30
2018-05-02T15:11:40.280Z,26.25
2018-05-02T15:14:07.881Z,26.21
2018-05-02T15:16:35.520Z,26.18
2018-05-02T15:19:03.165Z,26.16
2018-05-02T15:21:31.679Z,26.17
2018-05-02T15:23:59.230Z,26.05
2018-05-02T15:26:27.649Z,26.10
2018-05-02T15:28:55.141Z,26.18
2018-05-02T15:31:22.669Z,26.26
2018-05-02T15:33:50.187Z,26.30
2018-05-02T15:36:17.727Z,26.27
2018-05-02T15:38:45.303Z,26.36
2018-05-02T15:41:13.264Z,26.41
2018-05-02T15:43:40.938Z,26.44
2018-05-02T15:46:08.535Z,26.43
2018-05-02T15:48:36.158Z,26.44
2018-05-02T15:51:03.735Z,26.39
2018-05-02T15:53:31.332Z,26.36
2018-05-02T15:55:58.946Z,26.38
2018-05-02T15:58:26.593Z,26.42
2018-05-02T16:00:54.090Z,26.29
2018-05-02T16:03:21.643Z,26.25
2018-05-02T16:05:49.201Z,26.24
2018-05-02T16:08:16.782Z,26.23
2018-05-02T16:10:50.202Z,26.12
2018-05-02T16:16:01.807Z,26.15
2018-05-02T16:18:29.419Z,26.17
2018-05-02T16:20:58.023Z,26.05
2018-05-02T16:23:25.642Z,25.99
2018-05-02T16:25:53.227Z,25.91
2018-05-02T16:28:20.834Z,25.87
2018-05-02T16:30:48.431Z,25.74
2018-05-02T16:33:16.492Z,25.70
2018-05-02T16:35:44.085Z,25.74
2018-05-02T16:38:11.664Z,25.78
2018-05-02T16:40:39.440Z,25.75
2018-05-02T16:43:07.039Z,25.68
2018-05-02T16:45:34.603Z,25.54
2018-05-02T16:48:02.165Z,25.48
2018-05-02T16:50:29.716Z,25.45
2018-05-02T16:52:57.325Z,25.35
2018-05-02T16:55:24.975Z,25.31
2018-05-02T16:57:52.705Z,25.28
2018-05-02T17:00:20.286Z,25.24
2018-05-02T17:02:47.919Z,25.21
2018-05-02T17:05:16.197Z,25.09
2018-05-02T17:07:43.719Z,24.98
2018-05-02T17:10:11.327Z,24.90
2018-05-02T17:12:38.927Z,24.82
2018-05-02T17:15:06.544Z,24.65
2018-05-02T17:17:34.139Z,24.58
2018-05-02T17:20:01.704Z,24.58
2018-05-02T17:22:29.345Z,24.48
2018-05-02T17:24:56.987Z,24.46
2018-05-02T17:27:24.963Z,24.38
2018-05-02T17:29:52.531Z,24.32
2018-05-02T17:32:20.110Z,24.33
2018-05-02T17:34:47.667Z,24.32
2018-05-02T17:37:15.497Z,24.28
2018-05-02T17:39:43.144Z,24.27
2018-05-02T17:42:10.712Z,24.18
2018-05-02T17:44:38.290Z,24.11
2018-05-02T17:47:05.918Z,24.08
2018-05-02T17:49:33.668Z,24.03
2018-05-02T17:52:01.505Z,23.97
2018-05-02T17:54:29.092Z,23.97
2018-05-02T17:56:56.742Z,23.96
2018-05-02T17:59:24.346Z,23.87
2018-05-02T18:01:51.914Z,23.79
2018-05-02T18:04:30.896Z,23.76
2018-05-02T18:06:59.741Z,23.68
2018-05-02T18:09:27.455Z,23.63
2018-05-02T18:11:55.356Z,23.58
2018-05-02T18:14:22.955Z,23.47
2018-05-02T18:16:50.580Z,23.38
2018-05-02T18:19:18.130Z,23.37
2018-05-02T18:21:45.819Z,23.28
2018-05-02T18:24:13.409Z,23.22
2018-05-02T18:26:41.095Z,23.20
2018-05-02T18:29:08.771Z,23.15
2018-05-02T18:31:36.611Z,23.05
2018-05-02T18:34:04.225Z,22.99
2018-05-02T18:36:31.866Z,22.95
2018-05-02T18:38:59.425Z,22.84
2018-05-02T18:41:27.269Z,22.83
2018-05-02T18:43:54.984Z,22.71
2018-05-02T18:46:22.577Z,22.59
2018-05-02T18:48:50.150Z,22.49
2018-05-02T18:51:17.740Z,22.41
2018-05-02T18:53:45.433Z,22.38
2018-05-02T18:56:13.059Z,22.30
2018-05-02T18:58:40.663Z,22.27
2018-05-02T19:01:08.216Z,22.19
2018-05-02T19:03:36.007Z,22.17
2018-05-02T19:06:03.968Z,22.00
2018-05-02T19:08:31.585Z,21.98
2018-05-02T19:10:59.225Z,21.95
2018-05-02T19:13:26.802Z,21.94
2018-05-02T19:15:54.424Z,21.90
2018-05-02T19:18:27.553Z,21.87
2018-05-02T19:20:55.121Z,21.76
2018-05-02T19:23:22.737Z,21.72
2018-05-02T19:28:53.449Z,21.64
2018-05-02T19:31:26.400Z,21.54
2018-05-02T19:33:53.888Z,21.44
2018-05-02T19:36:21.423Z,21.44
2018-05-02T19:38:48.974Z,21.40
2018-05-02T19:41:22.802Z,21.34
2018-05-02T19:43:55.910Z,21.30
2018-05-02T19:46:23.419Z,21.28
2018-05-02T19:48:50.968Z,21.19
2018-05-02T19:51:23.908Z,21.13
2018-05-02T19:53:51.707Z,21.12
2018-05-02T19:56:19.372Z,21.09
2018-05-02T19:58:46.955Z,21.05
2018-05-02T20:01:20.184Z,20.96
2018-05-02T20:03:48.543Z,20.91
2018-05-02T20:06:16.139Z,20.86
2018-05-02T20:08:49.349Z,20.85
2018-05-02T20:11:22.541Z,20.87
2018-05-02T20:13:55.816Z,20.89
2018-05-02T20:16:23.419Z,20.82
2018-05-02T20:18:50.978Z,20.75
2018-05-02T20:21:18.656Z,20.68
2018-05-02T20:23:46.251Z,20.64
2018-05-02T20:26:13.808Z,20.59
2018-05-02T20:28:41.693Z,20.47
2018-05-02T20:31:09.332Z,20.32
2018-05-02T20:33:36.923Z,20.23
2018-05-02T20:36:04.508Z,20.04
2018-05-02T20:38:32.147Z,20.00
2018-05-02T20:40:59.773Z,19.96
2018-05-02T20:43:27.352Z,19.85
2018-05-02T20:45:54.933Z,19.76
2018-05-02T20:48:22.589Z,19.62
2018-05-02T20:50:50.149Z,19.55
2018-05-02T20:53:18.775Z,19.55
2018-05-02T20:55:46.570Z,19.52
2018-05-02T20:58:14.186Z,19.48
2018-05-02T21:00:42.010Z,19.47
2018-05-02T21:03:09.661Z,19.44
2018-05-02T21:05:37.225Z,19.35
2018-05-02T21:08:04.892Z,19.30
2018-05-02T21:10:32.817Z,19.29
2018-05-02T21:13:00.419Z,19.27
2018-05-02T21:15:28.152Z,19.26
2018-05-02T21:17:55.718Z,19.16
2018-05-02T21:20:23.366Z,19.15
2018-05-02T21:22:50.944Z,19.08
2018-05-02T21:25:18.520Z,19.01
2018-05-02T21:27:46.104Z,18.96
2018-05-02T21:30:13.706Z,18.97
2018-05-02T21:32:41.271Z,18.93
2018-05-02T21:35:09.382Z,18.93
2018-05-02T21:37:36.999Z,18.83
2018-05-02T21:40:04.595Z,18.79
2018-05-02T21:42:32.189Z,18.70
2018-05-02T21:44:59.764Z,18.64
2018-05-02T21:47:27.357Z,18.63
2018-05-02T21:49:55.837Z,18.66
2018-05-02T21:52:23.474Z,18.70
2018-05-02T21:54:50.985Z,18.76
2018-05-02T21:57:18.553Z,18.82
2018-05-02T21:59:46.201Z,18.85
2018-05-02T22:02:13.874Z,18.84
2018-05-02T22:07:26.553Z,18.57
2018-05-02T22:09:54.133Z,18.49
2018-05-02T22:12:21.846Z,18.44
2018-05-02T22:14:49.449Z,18.15
2018-05-02T22:17:17.435Z,18.04
2018-05-02T22:19:45.080Z,17.87
2018-05-02T22:22:12.672Z,17.57
2018-05-02T22:24:40.414Z,17.46
2018-05-02T22:27:08.574Z,17.34
2018-05-02T22:29:36.322Z,17.22
2018-05-02T22:32:04.028Z,17.05
2018-05-02T22:37:05.599Z,16.84
2018-05-02T22:39:33.326Z,16.76
2018-05-02T22:42:00.954Z,16.72
2018-05-02T22:44:28.567Z,16.60
2018-05-02T22:46:56.158Z,16.55
2018-05-02T22:49:24.064Z,16.54
2018-05-02T22:51:51.717Z,16.53
2018-05-02T22:54:19.371Z,16.53
2018-05-02T22:56:46.951Z,16.53
2018-05-02T22:59:14.523Z,16.47
2018-05-02T23:01:42.116Z,16.50
2018-05-02T23:04:09.684Z,16.50
2018-05-02T23:06:37.233Z,16.42
2018-05-02T23:09:04.877Z,16.42
2018-05-02T23:11:32.513Z,16.45
2018-05-02T23:14:00.143Z,16.33
2018-05-02T23:16:27.809Z,16.18
2018-05-02T23:18:55.375Z,16.19
2018-05-02T23:21:22.914Z,16.20
2018-05-02T23:23:50.416Z,16.22
2018-05-02T23:26:18.211Z,16.26
2018-05-02T23:28:45.824Z,16.18
2018-05-02T23:31:13.403Z,16.15
2018-05-02T23:33:40.996Z,16.10
2018-05-02T23:36:08.549Z,15.92
2018-05-02T23:38:36.080Z,15.96
2018-05-02T23:41:03.618Z,15.82
2018-05-02T23:43:31.201Z,15.76
2018-05-02T23:45:58.784Z,15.78
2018-05-02T23:48:26.355Z,15.86
2018-05-02T23:50:53.856Z,15.91
2018-05-02T23:53:21.374Z,15.93
2018-05-02T23:55:48.911Z,15.85
2018-05-02T23:58:16.403Z,15.91
